createdAt,value
2023-01-19T00:00:37.414Z,997.89
2023-01-19T00:01:37.341Z,997.93
2023-01-19T00:02:37.317Z,997.89
2023-01-19T00:03:37.247Z,997.94
2023-01-19T00:04:37.205Z,997.93
2023-01-19T00:05:37.145Z,997.93
2023-01-19T00:06:37.104Z,997.90
2023-01-19T00:07:37.050Z,997.93
2023-01-19T00:08:37.005Z,997.95
2023-01-19T00:09:36.951Z,997.92
2023-01-19T00:10:36.907Z,997.89
2023-01-19T00:11:36.885Z,997.89
2023-01-19T00:12:36.826Z,997.86
2023-01-19T00:13:36.758Z,997.90
2023-01-19T00:14:36.713Z,997.82
2023-01-19T00:15:36.661Z,997.79
2023-01-19T00:16:36.683Z,997.74
2023-01-19T00:17:36.566Z,997.78
2023-01-19T00:18:36.518Z,997.82
2023-01-19T00:19:36.463Z,997.88
2023-01-19T00:20:36.416Z,997.97
2023-01-19T00:21:36.366Z,997.89
2023-01-19T00:22:36.331Z,998.02
2023-01-19T00:23:36.269Z,998.03
2023-01-19T00:24:36.223Z,998.04
2023-01-19T00:25:36.230Z,998.04
2023-01-19T00:26:36.124Z,998.03
2023-01-19T00:27:36.167Z,998.01
2023-01-19T00:28:36.027Z,998.01
2023-01-19T00:29:35.981Z,998.03
2023-01-19T00:30:35.933Z,998.07
2023-01-19T00:31:35.909Z,998.05
2023-01-19T00:33:35.787Z,998.06
2023-01-19T00:34:35.736Z,997.99
2023-01-19T00:35:35.702Z,997.96
2023-01-19T00:36:35.637Z,998.02
2023-01-19T00:37:35.595Z,997.98
2023-01-19T00:39:35.499Z,998.05
2023-01-19T00:40:35.447Z,997.99
2023-01-19T00:41:35.396Z,997.93
2023-01-19T00:42:35.345Z,998.05
2023-01-19T00:43:35.316Z,998.05
2023-01-19T00:44:35.252Z,998.05
2023-01-19T00:45:35.296Z,998.07
2023-01-19T00:46:35.153Z,998.06
2023-01-19T00:47:35.105Z,998.01
2023-01-19T00:48:35.103Z,997.96
2023-01-19T00:49:35.042Z,997.97
2023-01-19T00:50:35.065Z,997.97
2023-01-19T00:51:34.928Z,998.02
2023-01-19T00:52:34.860Z,998.04
2023-01-19T00:53:34.815Z,998.03
2023-01-19T22:05:02.916Z,1006.02
2023-01-19T22:06:02.842Z,1006.00
2023-01-19T22:08:02.724Z,1006.01
2023-01-19T22:09:02.684Z,1006.03
2023-01-19T22:10:02.619Z,1006.04
2023-01-19T22:11:04.938Z,1006.11
2023-01-19T22:12:02.514Z,1006.06
2023-01-19T22:13:02.462Z,1006.12
2023-01-19T22:14:02.407Z,1006.15
2023-01-19T22:15:02.357Z,1006.19
2023-01-19T22:16:02.307Z,1006.19
2023-01-19T22:18:02.224Z,1006.18
2023-01-19T22:19:02.221Z,1006.25
2023-01-19T22:20:02.105Z,1006.26
2023-01-19T22:21:02.078Z,1006.25
2023-01-19T22:22:02.003Z,1006.23
2023-01-19T22:23:01.949Z,1006.28
2023-01-19T22:24:01.908Z,1006.23
2023-01-19T22:25:01.850Z,1006.26
2023-01-19T22:26:01.804Z,1006.26
2023-01-19T22:27:01.756Z,1006.25
2023-01-19T22:28:01.706Z,1006.26
2023-01-19T22:29:01.651Z,1006.29
2023-01-19T22:30:01.604Z,1006.25
